createdAt,value
2019-04-27T00:01:16.147Z,98905.00
2019-04-27T00:03:54.122Z,98888.00
2019-04-27T00:06:25.445Z,98883.00
2019-04-27T00:08:56.746Z,98875.00
2019-04-27T00:11:37.377Z,98884.00
2019-04-27T00:14:10.414Z,98897.00
2019-04-27T00:16:46.970Z,98896.00
2019-04-27T00:19:35.341Z,98893.00
2019-04-27T00:22:12.973Z,98904.00
2019-04-27T00:24:44.175Z,98899.00
2019-04-27T00:27:14.504Z,98889.00
2019-04-27T00:29:45.660Z,98868.00
2019-04-27T00:32:15.469Z,98881.00
2019-04-27T00:34:45.386Z,98875.00
2019-04-27T00:37:16.727Z,98877.00
2019-04-27T00:39:54.057Z,98869.00
2019-04-27T00:42:23.817Z,98877.00
2019-04-27T00:44:54.174Z,98853.00
2019-04-27T00:47:24.050Z,98870.00
2019-04-27T00:49:55.008Z,98857.00
2019-04-27T00:52:24.767Z,98836.00
2019-04-27T00:54:54.424Z,98827.00
2019-04-27T00:57:34.532Z,98824.00
2019-04-27T01:00:16.963Z,98808.00
2019-04-27T01:02:55.884Z,98817.00
2019-04-27T01:05:27.335Z,98805.00
2019-04-27T01:07:57.288Z,98801.00
2019-04-27T01:10:27.654Z,98786.00
2019-04-27T01:12:57.332Z,98801.00
2019-04-27T01:15:27.263Z,98796.00
2019-04-27T01:18:11.086Z,98761.00
2019-04-27T01:20:30.119Z,98777.00
2019-04-27T01:23:01.981Z,98775.00
2019-04-27T01:25:42.467Z,98776.00
2019-04-27T01:28:18.311Z,98768.00
2019-04-27T01:30:49.773Z,98778.00
2019-04-27T01:33:20.001Z,98770.00
2019-04-27T01:35:49.912Z,98769.00
2019-04-27T01:38:19.607Z,98755.00
2019-04-27T01:40:49.831Z,98741.00
2019-04-27T01:43:19.811Z,98748.00
2019-04-27T01:45:49.505Z,98727.00
2019-04-27T01:48:25.096Z,98717.00
2019-04-27T01:50:52.805Z,98706.00
2019-04-27T01:53:22.486Z,98704.00
2019-04-27T01:55:52.175Z,98690.00
2019-04-27T01:58:21.836Z,98683.00
2019-04-27T02:01:09.713Z,98682.00
2019-04-27T02:03:41.012Z,98644.00
2019-04-27T02:06:10.819Z,98656.00
2019-04-27T02:08:40.568Z,98649.00
2019-04-27T02:11:10.967Z,98654.00
2019-04-27T02:13:40.874Z,98646.00
2019-04-27T02:16:10.635Z,98636.00
2019-04-27T02:18:42.464Z,98630.00
2019-04-27T02:21:12.141Z,98652.00
2019-04-27T02:23:41.857Z,98633.00
2019-04-27T02:26:11.517Z,98629.00
2019-04-27T02:28:45.772Z,98641.00
2019-04-27T02:31:19.209Z,98604.00
2019-04-27T02:33:56.062Z,98618.00
2019-04-27T02:36:27.298Z,98619.00
2019-04-27T02:38:59.459Z,98622.00
2019-04-27T02:41:29.741Z,98621.00
2019-04-27T02:44:19.932Z,98623.00
2019-04-27T02:46:50.462Z,98619.00
2019-04-27T02:49:20.290Z,98601.00
2019-04-27T02:52:00.971Z,98617.00
2019-04-27T02:54:30.640Z,98597.00
2019-04-27T02:57:00.300Z,98605.00
2019-04-27T02:59:30.570Z,98599.00
2019-04-27T03:02:10.959Z,98598.00
2019-04-27T03:04:40.734Z,98601.00
2019-04-27T03:07:11.388Z,98580.00
2019-04-27T03:09:41.803Z,98571.00
2019-04-27T03:12:11.849Z,98600.00
2019-04-27T03:14:43.149Z,98593.00
2019-04-27T03:17:14.447Z,98572.00
2019-04-27T03:19:45.784Z,98574.00
2019-04-27T03:22:19.168Z,98582.00
2019-04-27T03:25:06.548Z,98560.00
2019-04-27T03:27:56.323Z,98563.00
2019-04-27T03:30:26.076Z,98566.00
2019-04-27T03:32:57.280Z,98570.00
2019-04-27T03:35:35.255Z,98565.00
2019-04-27T03:38:00.535Z,98555.00
2019-04-27T03:40:30.913Z,98580.00
2019-04-27T03:43:03.283Z,98567.00
2019-04-27T03:45:32.977Z,98563.00
2019-04-27T03:48:05.410Z,98567.00
2019-04-27T03:50:50.598Z,98568.00
2019-04-27T03:53:23.229Z,98568.00
2019-04-27T03:55:54.370Z,98559.00
2019-04-27T03:58:25.677Z,98559.00
2019-04-27T04:00:55.480Z,98549.00
2019-04-27T04:03:25.417Z,98544.00
2019-04-27T04:05:56.696Z,98548.00
2019-04-27T04:08:26.348Z,98549.00
2019-04-27T04:11:00.600Z,98539.00
2019-04-27T04:13:31.893Z,98543.00
2019-04-27T04:16:21.620Z,98560.00
2019-04-27T04:19:00.887Z,98544.00
2019-04-27T04:21:30.255Z,98544.00
2019-04-27T04:24:01.263Z,98554.00
2019-04-27T04:26:32.908Z,98573.00
2019-04-27T04:29:03.293Z,98561.00
2019-04-27T04:31:34.366Z,98574.00
2019-04-27T04:34:04.226Z,98568.00
2019-04-27T04:36:33.944Z,98564.00
2019-04-27T04:39:05.063Z,98581.00
2019-04-27T04:44:21.759Z,98574.00
2019-04-27T04:47:00.366Z,98574.00
2019-04-27T04:49:30.129Z,98574.00
2019-04-27T04:51:59.864Z,98587.00
2019-04-27T04:54:30.241Z,98602.00
2019-04-27T04:57:00.151Z,98603.00
2019-04-27T04:59:29.821Z,98593.00
2019-04-27T05:02:01.913Z,98592.00
2019-04-27T05:04:30.871Z,98603.00
2019-04-27T05:07:00.836Z,98613.00
2019-04-27T05:09:30.711Z,98592.00
2019-04-27T05:12:02.504Z,98625.00
2019-04-27T05:14:32.162Z,98618.00
2019-04-27T05:17:01.853Z,98620.00
2019-04-27T05:19:32.794Z,98611.00
2019-04-27T05:22:02.457Z,98628.00
2019-04-27T05:24:32.278Z,98618.00
2019-04-27T05:27:01.996Z,98637.00
2019-04-27T05:29:31.654Z,98622.00
2019-04-27T05:32:01.574Z,98631.00
2019-04-27T05:34:31.304Z,98625.00
2019-04-27T05:37:01.176Z,98625.00
2019-04-27T05:39:30.844Z,98628.00
2019-04-27T05:42:00.496Z,98628.00
2019-04-27T05:44:54.288Z,98642.00
2019-04-27T05:47:48.467Z,98641.00
2019-04-27T05:50:18.341Z,98645.00
2019-04-27T05:52:49.700Z,98661.00
2019-04-27T05:55:22.382Z,98649.00
2019-04-27T05:57:52.044Z,98675.00
2019-04-27T06:00:22.249Z,98669.00
2019-04-27T06:02:53.256Z,98702.00
2019-04-27T06:05:23.081Z,98689.00
2019-04-27T06:07:53.034Z,98673.00
2019-04-27T06:10:22.728Z,98695.00
2019-04-27T06:12:52.698Z,98694.00
2019-04-27T06:15:22.485Z,98689.00
2019-04-27T06:17:52.192Z,98699.00
2019-04-27T06:20:21.846Z,98688.00
2019-04-27T06:22:51.596Z,98687.00
2019-04-27T06:25:21.829Z,98705.00
2019-04-27T06:27:51.747Z,98706.00
2019-04-27T06:30:21.454Z,98706.00
2019-04-27T06:32:51.149Z,98706.00
2019-04-27T06:35:22.155Z,98717.00
2019-04-27T06:37:51.854Z,98719.00
2019-04-27T06:40:21.555Z,98733.00
2019-04-27T06:42:51.237Z,98722.00
2019-04-27T06:45:20.912Z,98730.00
2019-04-27T06:47:51.225Z,98728.00
2019-04-27T06:50:21.272Z,98737.00
2019-04-27T06:52:50.939Z,98737.00
2019-04-27T06:55:20.654Z,98738.00
2019-04-27T06:57:50.404Z,98753.00
2019-04-27T07:00:20.188Z,98756.00
2019-04-27T07:02:49.870Z,98760.00
2019-04-27T07:05:20.463Z,98752.00
2019-04-27T07:07:50.431Z,98793.00
2019-04-27T07:10:20.140Z,98776.00
2019-04-27T07:12:49.814Z,98775.00
2019-04-27T07:15:20.563Z,98783.00
2019-04-27T07:17:50.481Z,98792.00
2019-04-27T07:20:20.151Z,98776.00
2019-04-27T07:22:49.891Z,98794.00
2019-04-27T07:25:19.577Z,98808.00
2019-04-27T07:27:50.713Z,98807.00
2019-04-27T07:30:20.582Z,98828.00
2019-04-27T07:32:50.248Z,98815.00
2019-04-27T07:35:20.185Z,98812.00
2019-04-27T07:37:49.902Z,98836.00
2019-04-27T07:40:19.723Z,98841.00
2019-04-27T07:42:52.504Z,98856.00
2019-04-27T07:45:26.586Z,98845.00
2019-04-27T07:47:56.257Z,98835.00
2019-04-27T07:50:25.959Z,98852.00
2019-04-27T07:52:56.428Z,98859.00
2019-04-27T07:55:28.749Z,98878.00
2019-04-27T07:58:00.139Z,98861.00
2019-04-27T08:00:29.818Z,98879.00
2019-04-27T08:02:59.510Z,98873.00
2019-04-27T08:05:29.256Z,98878.00
2019-04-27T08:08:00.218Z,98880.00
2019-04-27T08:10:30.003Z,98901.00
2019-04-27T08:12:59.874Z,98904.00
2019-04-27T08:15:29.749Z,98910.00
2019-04-27T08:17:59.434Z,98913.00
2019-04-27T08:20:29.496Z,98908.00
2019-04-27T08:23:01.419Z,98922.00
2019-04-27T08:25:32.632Z,98913.00
2019-04-27T08:28:15.946Z,98923.00
2019-04-27T08:31:00.441Z,98913.00
2019-04-27T08:33:30.163Z,98933.00
2019-04-27T08:35:59.829Z,98942.00
2019-04-27T08:38:29.784Z,98942.00
2019-04-27T08:40:59.502Z,98951.00
2019-04-27T08:43:29.176Z,98952.00
2019-04-27T08:46:00.409Z,98968.00
2019-04-27T08:48:34.745Z,98970.00
2019-04-27T08:51:01.829Z,98975.00
2019-04-27T08:53:31.580Z,98968.00
2019-04-27T08:56:02.753Z,99027.00
2019-04-27T08:58:32.860Z,98977.00
2019-04-27T09:01:02.554Z,98987.00
2019-04-27T09:03:32.183Z,98991.00
2019-04-27T09:06:03.498Z,99003.00
2019-04-27T09:08:34.825Z,98991.00
2019-04-27T09:11:06.583Z,99001.00
2019-04-27T09:13:39.398Z,98996.00
2019-04-27T09:16:28.874Z,99004.00
2019-04-27T09:19:00.478Z,99022.00
2019-04-27T09:21:31.795Z,99026.00
2019-04-27T09:24:01.420Z,99038.00
2019-04-27T09:26:31.167Z,99016.00
2019-04-27T09:29:02.014Z,99031.00
2019-04-27T09:31:32.851Z,99054.00
2019-04-27T09:34:02.543Z,99052.00
2019-04-27T09:36:32.288Z,99055.00
2019-04-27T09:39:01.959Z,99054.00
2019-04-27T09:41:31.639Z,99054.00
2019-04-27T09:44:02.714Z,99062.00
2019-04-27T09:46:32.396Z,99072.00
2019-04-27T09:49:03.711Z,99072.00
2019-04-27T09:51:33.398Z,99098.00
2019-04-27T09:54:03.163Z,99080.00
2019-04-27T09:56:32.820Z,99078.00
2019-04-27T09:59:02.543Z,99108.00
2019-04-27T10:01:32.631Z,99120.00
2019-04-27T10:04:02.307Z,99119.00
2019-04-27T10:06:33.193Z,99091.00
2019-04-27T10:09:06.583Z,99125.00
2019-04-27T10:11:36.300Z,99141.00
2019-04-27T10:14:08.463Z,99145.00
2019-04-27T10:16:39.705Z,99112.00
2019-04-27T10:19:09.394Z,99147.00
2019-04-27T10:21:39.123Z,99130.00
2019-04-27T10:24:08.780Z,99135.00
2019-04-27T10:26:38.458Z,99132.00
2019-04-27T10:29:08.273Z,99123.00
2019-04-27T10:31:38.122Z,99136.00
2019-04-27T10:34:07.793Z,99150.00
2019-04-27T10:36:39.925Z,99161.00
2019-04-27T10:39:14.407Z,99152.00
2019-04-27T10:41:44.079Z,99166.00
2019-04-27T10:44:13.774Z,99163.00
2019-04-27T10:46:43.421Z,99171.00
2019-04-27T10:49:13.088Z,99185.00
2019-04-27T10:51:42.802Z,99188.00
2019-04-27T10:54:12.458Z,99190.00
2019-04-27T10:56:42.124Z,99207.00
2019-04-27T10:59:11.835Z,99188.00
2019-04-27T11:01:41.495Z,99208.00
2019-04-27T11:04:12.801Z,99194.00
2019-04-27T11:06:47.190Z,99219.00
2019-04-27T11:09:16.962Z,99217.00
2019-04-27T11:11:46.630Z,99221.00
2019-04-27T11:14:16.325Z,99242.00
2019-04-27T11:16:46.123Z,99230.00
2019-04-27T11:19:16.879Z,99235.00
2019-04-27T11:21:46.718Z,99234.00
2019-04-27T11:24:16.391Z,99250.00
2019-04-27T11:26:46.535Z,99251.00
2019-04-27T11:29:16.460Z,99255.00
2019-04-27T11:31:46.692Z,99227.00
2019-04-27T11:34:17.071Z,99291.00
2019-04-27T11:36:51.376Z,99269.00
2019-04-27T11:39:21.300Z,99277.00
2019-04-27T11:41:51.011Z,99279.00
2019-04-27T11:44:20.711Z,99283.00
2019-04-27T11:46:50.428Z,99288.00
2019-04-27T11:49:20.107Z,99316.00
2019-04-27T11:51:49.808Z,99289.00
2019-04-27T11:54:19.446Z,99278.00
2019-04-27T11:56:49.034Z,99306.00
2019-04-27T11:59:18.729Z,99358.00
2019-04-27T12:01:48.397Z,99330.00
2019-04-27T12:04:18.211Z,99305.00
2019-04-27T12:06:47.962Z,99326.00
2019-04-27T12:09:17.638Z,99328.00
2019-04-27T12:11:47.904Z,99346.00
2019-04-27T12:14:17.584Z,99335.00
2019-04-27T12:16:47.273Z,99335.00
2019-04-27T12:19:16.948Z,99333.00
2019-04-27T12:21:46.644Z,99345.00
2019-04-27T12:24:17.956Z,99369.00
2019-04-27T12:26:57.347Z,99359.00
2019-04-27T12:29:28.525Z,99326.00
2019-04-27T12:31:59.879Z,99373.00
2019-04-27T12:34:29.569Z,99353.00
2019-04-27T12:36:59.256Z,99341.00
2019-04-27T12:39:29.020Z,99369.00
2019-04-27T12:41:58.728Z,99350.00
2019-04-27T12:44:28.627Z,99369.00
2019-04-27T12:47:02.606Z,99378.00
2019-04-27T12:49:29.773Z,99370.00
2019-04-27T12:51:59.428Z,99375.00
2019-04-27T12:54:36.310Z,99369.00
2019-04-27T12:57:11.153Z,99373.00
2019-04-27T12:59:57.655Z,99391.00
2019-04-27T13:02:35.678Z,99385.00
2019-04-27T13:05:10.161Z,99381.00
2019-04-27T13:07:39.955Z,99404.00
2019-04-27T13:10:11.313Z,99390.00
2019-04-27T13:12:41.011Z,99385.00
2019-04-27T13:15:12.027Z,99405.00
2019-04-27T13:17:41.634Z,99419.00
2019-04-27T13:20:11.753Z,99417.00
2019-04-27T13:22:42.132Z,99437.00
2019-04-27T13:25:12.954Z,99437.00
2019-04-27T13:27:42.645Z,99494.00
2019-04-27T13:30:13.476Z,99423.00
2019-04-27T13:32:43.154Z,99440.00
2019-04-27T13:35:13.568Z,99425.00
2019-04-27T13:37:44.193Z,99445.00
2019-04-27T13:40:17.177Z,99447.00
2019-04-27T13:43:02.986Z,99467.00
2019-04-27T13:45:46.783Z,99463.00
2019-04-27T13:48:18.127Z,99451.00
2019-04-27T13:50:52.468Z,99458.00
2019-04-27T13:53:22.552Z,99464.00
2019-04-27T13:55:52.332Z,99469.00
2019-04-27T13:58:21.998Z,99471.00
2019-04-27T14:00:51.855Z,99482.00
2019-04-27T14:03:21.552Z,99472.00
2019-04-27T14:05:52.596Z,99493.00
2019-04-27T14:08:24.411Z,99490.00
2019-04-27T14:10:54.105Z,99494.00
2019-04-27T14:13:23.786Z,99486.00
2019-04-27T14:15:53.459Z,99487.00
2019-04-27T14:18:23.154Z,99492.00
2019-04-27T14:20:52.853Z,99479.00
2019-04-27T14:23:28.353Z,99475.00
2019-04-27T14:25:58.597Z,99570.00
2019-04-27T14:28:29.625Z,99476.00
2019-04-27T14:30:59.310Z,99489.00
2019-04-27T14:33:28.990Z,99486.00
2019-04-27T14:35:59.408Z,99476.00
2019-04-27T14:38:29.633Z,99479.00
2019-04-27T14:40:59.472Z,99481.00
2019-04-27T14:43:29.321Z,99556.00
2019-04-27T14:45:59.065Z,99506.00
2019-04-27T14:48:29.471Z,99543.00
2019-04-27T14:50:59.313Z,99500.00
2019-04-27T14:53:30.636Z,99483.00
2019-04-27T14:56:00.332Z,99520.00
2019-04-27T14:58:31.525Z,99511.00
2019-04-27T15:01:02.519Z,99526.00
2019-04-27T15:03:32.216Z,99534.00
2019-04-27T15:06:01.945Z,99522.00
2019-04-27T15:08:34.033Z,99541.00
2019-04-27T15:11:04.189Z,99531.00
2019-04-27T15:13:37.949Z,99536.00
2019-04-27T15:16:09.409Z,99523.00
2019-04-27T15:18:43.595Z,99530.00
2019-04-27T15:21:12.420Z,99532.00
2019-04-27T15:23:42.199Z,99554.00
2019-04-27T15:26:15.396Z,99543.00
2019-04-27T15:28:49.513Z,99518.00
2019-04-27T15:31:26.450Z,99539.00
2019-04-27T15:33:55.115Z,99556.00
2019-04-27T15:36:29.416Z,99540.00
2019-04-27T15:39:03.421Z,99545.00
2019-04-27T15:41:34.740Z,99541.00
2019-04-27T15:44:08.872Z,99566.00
2019-04-27T15:46:39.077Z,99549.00
2019-04-27T15:49:11.287Z,99582.00
2019-04-27T15:51:40.339Z,99591.00
2019-04-27T15:54:10.024Z,99590.00
2019-04-27T15:56:39.715Z,99594.00
2019-04-27T15:59:10.853Z,99599.00
2019-04-27T16:01:40.590Z,99590.00
2019-04-27T16:04:11.300Z,99616.00
2019-04-27T16:06:47.383Z,99601.00
2019-04-27T16:09:23.962Z,99617.00
2019-04-27T16:11:57.872Z,99613.00
2019-04-27T16:14:21.637Z,99601.00
2019-04-27T16:16:51.326Z,99623.00
2019-04-27T16:19:23.744Z,99616.00
2019-04-27T16:21:54.084Z,99616.00
2019-04-27T16:24:24.296Z,99617.00
2019-04-27T16:26:56.011Z,99609.00
2019-04-27T16:29:31.241Z,99601.00
2019-04-27T16:32:02.873Z,99626.00
2019-04-27T16:34:33.127Z,99647.00
2019-04-27T16:37:01.905Z,99658.00
2019-04-27T16:39:31.566Z,99646.00
2019-04-27T16:42:01.235Z,99654.00
2019-04-27T16:44:30.908Z,99647.00
2019-04-27T16:47:02.125Z,99657.00
2019-04-27T16:49:31.839Z,99676.00
2019-04-27T16:52:02.957Z,99686.00
2019-04-27T16:54:32.637Z,99671.00
2019-04-27T16:57:05.020Z,99668.00
2019-04-27T16:59:43.429Z,99667.00
2019-04-27T17:02:05.208Z,99663.00
2019-04-27T17:04:34.887Z,99673.00
2019-04-27T17:07:04.661Z,99666.00
2019-04-27T17:09:36.300Z,99689.00
2019-04-27T17:12:05.913Z,99665.00
2019-04-27T17:14:43.590Z,99696.00
2019-04-27T17:17:23.910Z,99694.00
2019-04-27T17:19:55.223Z,99708.00
2019-04-27T17:22:26.013Z,99686.00
2019-04-27T17:24:55.689Z,99692.00
2019-04-27T17:27:29.822Z,99695.00
2019-04-27T17:30:01.624Z,99700.00
2019-04-27T17:32:43.928Z,99701.00
2019-04-27T17:35:15.065Z,99707.00
2019-04-27T17:37:45.007Z,99705.00
2019-04-27T17:40:15.505Z,99728.00
2019-04-27T17:42:48.173Z,99711.00
2019-04-27T17:45:19.402Z,99726.00
2019-04-27T17:47:51.333Z,99719.00
2019-04-27T17:50:25.089Z,99731.00
2019-04-27T17:52:54.763Z,99730.00
2019-04-27T17:55:25.437Z,99749.00
2019-04-27T17:58:00.585Z,99722.00
2019-04-27T18:00:28.105Z,99721.00
2019-04-27T18:02:58.071Z,99750.00
2019-04-27T18:05:28.497Z,99748.00
2019-04-27T18:07:58.339Z,99738.00
2019-04-27T18:10:28.255Z,99743.00
2019-04-27T18:12:58.347Z,99739.00
2019-04-27T18:15:30.651Z,99734.00
2019-04-27T18:18:02.013Z,99742.00
2019-04-27T18:20:31.680Z,99758.00
2019-04-27T18:23:15.239Z,99767.00
2019-04-27T18:25:48.138Z,99764.00
2019-04-27T18:28:19.868Z,99773.00
2019-04-27T18:30:51.181Z,99794.00
2019-04-27T18:33:23.846Z,99778.00
2019-04-27T18:35:58.845Z,99795.00
2019-04-27T18:38:24.970Z,99786.00
2019-04-27T18:40:55.587Z,99786.00
2019-04-27T18:43:28.634Z,99784.00
2019-04-27T18:46:02.922Z,99776.00
2019-04-27T18:48:34.459Z,99778.00
2019-04-27T18:51:05.771Z,99809.00
2019-04-27T18:53:36.214Z,99810.00
2019-04-27T18:56:08.037Z,99807.00
2019-04-27T18:58:37.452Z,99797.00
2019-04-27T19:01:08.621Z,99813.00
2019-04-27T19:03:39.160Z,99818.00
2019-04-27T19:06:10.431Z,99831.00
2019-04-27T19:08:40.183Z,99831.00
2019-04-27T19:11:09.929Z,99823.00
2019-04-27T19:13:40.159Z,99785.00
2019-04-27T19:16:10.278Z,99846.00
2019-04-27T19:18:40.044Z,99843.00
2019-04-27T19:21:09.677Z,99852.00
2019-04-27T19:23:43.195Z,99848.00
2019-04-27T19:26:18.610Z,99844.00
2019-04-27T19:28:58.362Z,99859.00
2019-04-27T19:31:29.957Z,99866.00
2019-04-27T19:34:01.409Z,99869.00
2019-04-27T19:36:31.358Z,99882.00
2019-04-27T19:39:02.166Z,99890.00
2019-04-27T19:41:32.066Z,99890.00
2019-04-27T19:44:04.788Z,99891.00
2019-04-27T19:46:34.497Z,99882.00
2019-04-27T19:49:04.761Z,99902.00
2019-04-27T19:51:34.815Z,99920.00
2019-04-27T19:54:05.968Z,99907.00
2019-04-27T19:56:38.237Z,99912.00
2019-04-27T19:59:13.432Z,99918.00
2019-04-27T20:01:45.833Z,99926.00
2019-04-27T20:04:16.935Z,99912.00
2019-04-27T20:06:48.421Z,99914.00
2019-04-27T20:09:22.594Z,99929.00
2019-04-27T20:11:52.255Z,99933.00
2019-04-27T20:14:21.857Z,99931.00
2019-04-27T20:16:52.819Z,99961.00
2019-04-27T20:19:22.495Z,99947.00
2019-04-27T20:21:52.201Z,99932.00
2019-04-27T20:24:22.863Z,99950.00
2019-04-27T20:26:52.651Z,99962.00
2019-04-27T20:29:22.361Z,99944.00
2019-04-27T20:31:52.103Z,99953.00
2019-04-27T20:34:22.867Z,99952.00
2019-04-27T20:36:52.962Z,99985.00
2019-04-27T20:39:22.627Z,99948.00
2019-04-27T20:41:52.312Z,99958.00
2019-04-27T20:44:21.982Z,99986.00
2019-04-27T20:46:53.230Z,99980.00
2019-04-27T20:49:24.529Z,99984.00
2019-04-27T20:52:00.893Z,99979.00
2019-04-27T20:54:32.647Z,99964.00
2019-04-27T20:57:04.346Z,99974.00
2019-04-27T20:59:34.013Z,99981.00
2019-04-27T21:02:23.870Z,99988.00
2019-04-27T21:04:54.934Z,99977.00
2019-04-27T21:07:41.565Z,99995.00
2019-04-27T21:10:11.861Z,99996.00
2019-04-27T21:12:43.013Z,99994.00
2019-04-27T21:15:12.986Z,100019.00
2019-04-27T21:17:42.737Z,99989.00
2019-04-27T21:20:13.251Z,99990.00
2019-04-27T21:22:43.124Z,99993.00
2019-04-27T21:25:12.811Z,99985.00
2019-04-27T21:27:42.502Z,99985.00
2019-04-27T21:30:12.201Z,99991.00
2019-04-27T21:32:41.868Z,99989.00
2019-04-27T21:35:12.910Z,99999.00
2019-04-27T21:37:42.619Z,100004.00
2019-04-27T21:40:15.111Z,100002.00
2019-04-27T21:42:44.850Z,100011.00
2019-04-27T21:45:16.475Z,100022.00
2019-04-27T21:47:46.633Z,100012.00
2019-04-27T21:50:17.684Z,100016.00
2019-04-27T21:52:48.968Z,100014.00
2019-04-27T21:55:21.754Z,99973.00
2019-04-27T21:57:51.527Z,100038.00
2019-04-27T22:00:43.091Z,100015.00
2019-04-27T22:03:17.427Z,100012.00
2019-04-27T22:05:47.204Z,100053.00
2019-04-27T22:08:18.353Z,100020.00
2019-04-27T22:10:49.289Z,100022.00
2019-04-27T22:13:22.182Z,100036.00
2019-04-27T22:15:50.354Z,100025.00
2019-04-27T22:18:21.242Z,100042.00
2019-04-27T22:20:51.492Z,100023.00
2019-04-27T22:23:23.146Z,100024.00
2019-04-27T22:25:55.231Z,100028.00
2019-04-27T22:28:24.931Z,100030.00
2019-04-27T22:30:54.680Z,100021.00
2019-04-27T22:33:25.057Z,100034.00
2019-04-27T22:35:57.699Z,100022.00
2019-04-27T22:38:27.431Z,100027.00
2019-04-27T22:41:02.086Z,100032.00
2019-04-27T22:43:51.451Z,100016.00
2019-04-27T22:46:25.884Z,100016.00
2019-04-27T22:48:55.533Z,100020.00
2019-04-27T22:51:28.361Z,100019.00
2019-04-27T22:53:58.091Z,100010.00
2019-04-27T22:56:28.041Z,100019.00
2019-04-27T22:59:01.649Z,100032.00
2019-04-27T23:01:48.247Z,100024.00
2019-04-27T23:04:36.213Z,100039.00
2019-04-27T23:07:05.882Z,100028.00
2019-04-27T23:09:35.648Z,100041.00
2019-04-27T23:12:05.731Z,100070.00
2019-04-27T23:14:37.356Z,100044.00
2019-04-27T23:17:17.796Z,100040.00
2019-04-27T23:19:51.010Z,100043.00
2019-04-27T23:22:21.420Z,100046.00
2019-04-27T23:24:51.877Z,100048.00
2019-04-27T23:27:21.741Z,100051.00
2019-04-27T23:29:54.324Z,100051.00
2019-04-27T23:32:34.787Z,100056.00
2019-04-27T23:35:10.972Z,100052.00
2019-04-27T23:37:42.102Z,100039.00
2019-04-27T23:40:17.666Z,100046.00
2019-04-27T23:42:52.338Z,100076.00
2019-04-27T23:45:24.835Z,100059.00
2019-04-27T23:47:55.608Z,100054.00
2019-04-27T23:50:28.571Z,100067.00
2019-04-27T23:53:04.267Z,100063.00
2019-04-27T23:55:35.566Z,100070.00
2019-04-27T23:58:06.803Z,100074.00
